»·PEaware :: N44GC KVNY-KSNA

N44GC :: KVNY-KSNA

FLIGHT INFORMATION

Flight Status: Arrived
Operator: Privately registered:
United States
More flights under this callsign
Pilot: Ian R. (18354)
Aircraft: Unknown
(EPIC)
More flights by this aircraft type
Origin: KVNY Van Nuys
United States
Destination: KSNA John Wayne-Orange Co
United States
More flights between these airports :: More routes between these airports
Route: COASTAL ROUTE SOUTHBOUND
File this flight plan on PilotEdge
Remarks:
Altitude:
(Current/Filed)
5,500ft
Speed:
(Current/Filed)
180kts
Departed: 11-Feb-20 12:36 PM
Arrived: 11-Feb-20 01:00 PM
Distance/Time
Traveled:
45nm/0:24
Distance/Time
To Go:
Arrived

Flight Plot

Page will automatically refresh every two minutes.


Map Options




Map Legend


Flown Route
Filed Route
Departure Airport
Arrival Airport
Navaid (VOR, NDB)
Fix

Horizontal Profiles

Position Reports

Time Latitude Longitude Heading Altitude Ground
Speed
11-Feb-20 12:12 34.204322 -118.491536 0 805ft 0kts
11-Feb-20 12:13 34.204322 -118.491536 0 805ft 0kts
11-Feb-20 12:14 34.204322 -118.491536 0 805ft 0kts
11-Feb-20 12:15 34.204322 -118.491536 0 805ft 0kts
11-Feb-20 12:16 34.204322 -118.491536 0 805ft 0kts
11-Feb-20 12:17 34.204322 -118.491536 0 805ft 0kts
11-Feb-20 12:18 34.204322 -118.491536 0 805ft 0kts
11-Feb-20 12:19 34.204322 -118.491536 0 805ft 0kts
11-Feb-20 12:20 34.204322 -118.491536 0 805ft 0kts
11-Feb-20 12:21 34.204322 -118.491536 0 805ft 0kts
11-Feb-20 12:22 34.204322 -118.491536 0 805ft 0kts
11-Feb-20 12:23 34.204322 -118.491536 0 805ft 0kts
11-Feb-20 12:24 34.204322 -118.491536 0 805ft 0kts
11-Feb-20 12:25 34.204322 -118.491536 0 805ft 0kts
11-Feb-20 12:26 34.204322 -118.491536 0 805ft 0kts
11-Feb-20 12:27 34.204322 -118.491536 0 805ft 0kts
11-Feb-20 12:28 34.204322 -118.491536 0 805ft 0kts
11-Feb-20 12:29 34.203643 -118.490956 175 805ft 14kts
11-Feb-20 12:30 34.199576 -118.490239 174 805ft 16kts
11-Feb-20 12:31 34.197232 -118.489992 151 805ft 0kts
11-Feb-20 12:32 34.197232 -118.489992 151 805ft 0kts
11-Feb-20 12:33 34.197219 -118.489984 151 805ft 2kts
11-Feb-20 12:34 34.197736 -118.489272 354 805ft 33kts
11-Feb-20 12:35 34.234017 -118.495784 351 1868ft 161kts
11-Feb-20 12:36 34.283155 -118.507216 346 2533ft 190kts
11-Feb-20 12:37 34.285402 -118.545194 184 4059ft 163kts
11-Feb-20 12:38 34.240439 -118.556934 196 5469ft 175kts
11-Feb-20 12:39 34.185030 -118.552455 168 5496ft 201kts
11-Feb-20 12:40 34.136271 -118.530878 155 5504ft 177kts
11-Feb-20 12:41 34.088180 -118.507374 155 5513ft 193kts
11-Feb-20 12:42 34.037394 -118.482566 156 5510ft 200kts
11-Feb-20 12:43 33.985182 -118.457091 155 5510ft 203kts
11-Feb-20 12:44 33.932710 -118.431510 155 5510ft 204kts
11-Feb-20 12:45 33.893292 -118.387377 136 5512ft 202kts
11-Feb-20 12:46 33.851091 -118.342665 135 5508ft 202kts
11-Feb-20 12:47 33.811462 -118.296921 129 5446ft 194kts
11-Feb-20 12:48 33.771421 -118.252816 130 5447ft 195kts
11-Feb-20 12:49 33.731203 -118.208637 122 5476ft 193kts
11-Feb-20 12:50 33.705247 -118.152507 109 4876ft 189kts
11-Feb-20 12:51 33.682487 -118.097666 109 3697ft 179kts
11-Feb-20 12:52 33.660891 -118.042779 108 2011ft 179kts
11-Feb-20 12:53 33.644386 -117.992403 115 1367ft 147kts
11-Feb-20 12:55 33.637464 -117.951418 66 768ft 99kts
11-Feb-20 12:56 33.641704 -117.922416 95 1159ft 89kts
11-Feb-20 12:57 33.638343 -117.895563 52 723ft 77kts
11-Feb-20 12:58 33.655749 -117.881597 24 331ft 74kts
11-Feb-20 12:59 33.672858 -117.870678 28 59ft 46kts
11-Feb-20 13:00 33.674877 -117.868657 163 59ft 0kts
11-Feb-20 13:01 33.673796 -117.866410 96 59ft 16kts
11-Feb-20 13:02 33.673542 -117.865741 117 59ft 0kts

Navigation Log

Ident Type
Flight plan parsing failed, navigation log unavailable